createdAt,value
2023-03-11T00:01:49.925Z,9.65
2023-03-11T00:07:52.590Z,10.88
2023-03-11T00:13:54.938Z,10.20
2023-03-11T00:19:57.278Z,10.20
2023-03-11T00:26:01.685Z,12.80
2023-03-11T00:32:04.223Z,12.82
2023-03-11T00:38:08.165Z,12.80
2023-03-11T00:44:12.854Z,13.18
2023-03-11T00:50:21.369Z,11.10
2023-03-11T00:56:23.709Z,10.68
2023-03-11T01:02:26.080Z,10.25
2023-03-11T01:08:29.964Z,10.07
2023-03-11T01:14:32.239Z,9.75
2023-03-11T01:20:36.123Z,10.55
2023-03-11T01:26:38.482Z,8.20
2023-03-11T01:32:40.796Z,8.85
2023-03-11T01:38:43.336Z,8.32
2023-03-11T01:44:45.806Z,7.68
2023-03-11T01:50:51.208Z,7.30
2023-03-11T01:56:56.056Z,7.82
2023-03-11T02:03:02.564Z,7.75
2023-03-11T02:09:04.910Z,7.72
2023-03-11T02:21:29.263Z,8.10
2023-03-11T02:27:39.964Z,6.90
2023-03-11T02:33:45.734Z,6.70
2023-03-11T02:39:51.179Z,7.32
2023-03-11T02:45:54.457Z,9.70
2023-03-11T02:51:56.863Z,10.27
2023-03-11T02:57:59.180Z,9.80
2023-03-11T03:04:01.929Z,11.77
2023-03-11T03:10:08.078Z,11.93
2023-03-11T03:16:11.349Z,11.85
2023-03-11T03:22:13.912Z,10.32
2023-03-11T03:28:17.291Z,9.70
2023-03-11T03:34:21.385Z,9.70
2023-03-11T03:40:23.963Z,8.77
2023-03-11T03:46:28.813Z,8.98
2023-03-11T03:52:33.617Z,10.05
2023-03-11T03:58:36.872Z,9.52
2023-03-11T04:04:39.478Z,8.63
2023-03-11T04:10:42.063Z,9.40
2023-03-11T04:16:44.529Z,9.70
2023-03-11T04:22:49.081Z,10.57
2023-03-11T04:28:53.876Z,10.77
2023-03-11T04:34:57.399Z,8.27
2023-03-11T04:41:04.207Z,9.25
2023-03-11T04:47:06.921Z,8.57
2023-03-11T04:53:10.100Z,7.78
2023-03-11T05:05:17.197Z,8.30
2023-03-11T05:11:19.457Z,9.15
2023-03-11T05:17:23.295Z,8.75
2023-03-11T05:23:28.849Z,9.75
2023-03-11T05:29:31.979Z,8.55
2023-03-11T05:35:35.005Z,8.63
2023-03-11T05:41:37.533Z,10.10
2023-03-11T05:47:42.474Z,8.82
2023-03-11T05:53:48.900Z,9.88
2023-03-11T05:59:56.761Z,9.00
2023-03-11T06:05:59.716Z,7.97
2023-03-11T06:12:02.347Z,8.68
2023-03-11T06:18:14.602Z,9.60
2023-03-11T06:24:17.313Z,7.53
2023-03-11T06:36:31.172Z,7.13
2023-03-11T06:42:34.997Z,6.18
2023-03-11T06:48:38.284Z,5.93
2023-03-11T06:54:40.748Z,5.00
2023-03-11T07:00:44.062Z,5.57
2023-03-11T07:06:46.662Z,5.03
2023-03-11T07:12:55.421Z,4.60
2023-03-11T07:19:03.723Z,5.00
2023-03-11T07:25:06.619Z,4.50
2023-03-11T07:37:12.376Z,4.40
2023-03-11T07:43:15.143Z,4.95
2023-03-11T07:49:17.430Z,4.70
2023-03-11T07:55:19.544Z,5.97
2023-03-11T08:01:24.686Z,7.37
2023-03-11T08:07:27.381Z,6.47
2023-03-11T08:19:32.116Z,7.90
2023-03-11T08:25:34.544Z,6.40
2023-03-11T08:31:37.184Z,6.18
2023-03-11T08:37:39.572Z,9.02
2023-03-11T08:43:42.609Z,12.30
2023-03-11T08:49:45.081Z,11.25
2023-03-11T08:55:47.437Z,10.50
2023-03-11T09:01:49.921Z,12.13
2023-03-11T09:07:52.309Z,13.80
2023-03-11T09:13:54.833Z,17.23
2023-03-11T09:19:57.705Z,19.45
2023-03-11T09:25:59.937Z,20.80
2023-03-11T09:32:02.209Z,19.73
2023-03-11T09:38:04.303Z,16.15
2023-03-11T09:44:16.639Z,14.65
2023-03-11T09:50:31.002Z,15.27
2023-03-11T09:56:36.423Z,15.68
2023-03-11T10:02:39.015Z,15.50
2023-03-11T10:08:55.226Z,15.25
2023-03-11T10:15:06.850Z,14.88
2023-03-11T10:21:40.298Z,15.10
2023-03-11T10:27:45.347Z,16.85
2023-03-11T10:34:16.571Z,18.95
2023-03-11T10:40:27.362Z,19.33
2023-03-11T10:46:29.753Z,20.50
2023-03-11T10:52:31.920Z,18.85
2023-03-11T10:58:34.647Z,17.83
2023-03-11T11:04:41.708Z,16.48
2023-03-11T11:10:52.687Z,17.50
2023-03-11T11:16:55.306Z,16.38
2023-03-11T11:29:10.393Z,12.75
2023-03-11T11:35:15.775Z,11.95
2023-03-11T11:41:20.873Z,11.73
2023-03-11T11:47:30.633Z,9.38
2023-03-11T11:53:50.457Z,9.40
2023-03-11T11:59:52.876Z,8.63
2023-03-11T12:12:17.788Z,10.23
2023-03-11T12:18:28.503Z,8.80
2023-03-11T12:24:37.999Z,8.05
2023-03-11T12:30:48.758Z,8.52
2023-03-11T12:36:52.993Z,8.13
2023-03-11T12:42:55.381Z,7.60
2023-03-11T12:49:12.759Z,7.20
2023-03-11T12:55:17.642Z,7.75
2023-03-11T13:01:46.248Z,9.52
2023-03-11T13:07:57.468Z,7.00
2023-03-11T13:14:16.772Z,7.40
2023-03-11T13:20:42.077Z,6.15
2023-03-11T13:27:04.969Z,5.47
2023-03-11T13:33:22.383Z,5.10
2023-03-11T13:39:55.419Z,4.80
2023-03-11T13:46:29.063Z,4.33
2023-03-11T13:58:35.109Z,4.60
2023-03-11T14:04:40.154Z,4.40
2023-03-11T14:10:52.473Z,3.50
2023-03-11T14:16:55.367Z,3.63
2023-03-11T14:22:58.211Z,3.60
2023-03-11T14:29:07.441Z,3.72
2023-03-11T14:35:21.048Z,3.75
2023-03-11T14:41:23.676Z,3.85
2023-03-11T14:47:46.168Z,3.03
2023-03-11T14:54:14.718Z,3.00
2023-03-11T15:00:25.380Z,3.20
2023-03-11T15:06:30.119Z,2.95
2023-03-11T15:12:35.242Z,3.65
2023-03-11T15:18:38.598Z,2.70
2023-03-11T15:24:41.131Z,3.10
2023-03-11T15:30:43.402Z,2.78
2023-03-11T15:36:57.127Z,4.30
2023-03-11T15:43:31.183Z,5.20
2023-03-11T15:49:34.126Z,2.65
2023-03-11T15:55:37.543Z,3.17
2023-03-11T16:01:39.915Z,3.65
2023-03-11T16:07:42.297Z,3.40
2023-03-11T16:13:44.586Z,3.72
2023-03-11T16:19:49.529Z,3.53
2023-03-11T16:25:56.107Z,4.35
2023-03-11T16:31:58.207Z,6.20
2023-03-11T16:38:00.816Z,7.30
2023-03-11T16:50:06.050Z,11.43
2023-03-11T16:56:08.556Z,8.43
2023-03-11T17:02:12.343Z,7.68
2023-03-11T17:08:16.572Z,4.13
2023-03-11T17:14:18.830Z,3.47
2023-03-11T17:20:21.834Z,3.00
2023-03-11T17:26:25.432Z,3.40
2023-03-11T17:32:28.408Z,2.60
2023-03-11T17:38:31.114Z,2.63
2023-03-11T17:44:50.286Z,2.33
2023-03-11T17:50:53.606Z,2.45
2023-03-11T17:56:56.068Z,1.95
2023-03-11T18:02:58.547Z,2.50
2023-03-11T18:09:01.091Z,2.30
2023-03-11T18:15:06.473Z,1.77
2023-03-11T18:21:14.519Z,1.95
2023-03-11T18:27:16.977Z,2.05
2023-03-11T18:33:19.299Z,2.00
2023-03-11T18:39:21.721Z,2.00
2023-03-11T18:45:23.827Z,2.08
2023-03-11T18:51:27.629Z,2.00
2023-03-11T18:57:30.055Z,1.77
2023-03-11T19:03:32.364Z,2.60
2023-03-11T19:09:34.864Z,2.45
2023-03-11T19:15:43.407Z,2.10
2023-03-11T19:21:47.909Z,2.03
2023-03-11T19:27:50.076Z,1.65
2023-03-11T19:33:52.584Z,1.87
2023-03-11T19:39:54.677Z,1.77
2023-03-11T19:45:57.327Z,2.43
2023-03-11T19:51:59.708Z,1.98
2023-03-11T19:58:01.842Z,1.88
2023-03-11T20:04:05.904Z,1.63
2023-03-11T20:10:08.997Z,2.22
2023-03-11T20:16:17.363Z,1.50
2023-03-11T20:22:20.810Z,1.50
2023-03-11T20:28:26.099Z,1.05
2023-03-11T20:34:29.621Z,1.60
2023-03-11T20:40:31.864Z,2.13
2023-03-11T20:46:34.250Z,1.75
2023-03-11T20:52:36.618Z,1.90
2023-03-11T20:58:39.066Z,1.95
2023-03-11T21:04:43.177Z,2.05
2023-03-11T21:10:45.347Z,1.52
2023-03-11T21:16:47.768Z,2.15
2023-03-11T21:22:50.291Z,2.25
2023-03-11T21:28:52.995Z,1.63
2023-03-11T21:34:57.603Z,2.63
2023-03-11T21:41:17.591Z,2.40
2023-03-11T21:47:20.357Z,2.10
2023-03-11T21:59:25.667Z,2.22
2023-03-11T22:05:28.282Z,2.38
2023-03-11T22:11:30.981Z,1.95
2023-03-11T22:17:33.386Z,2.20
2023-03-11T22:23:36.021Z,2.22
2023-03-11T22:35:41.929Z,1.23
2023-03-11T22:41:44.245Z,2.35
2023-03-11T22:47:46.685Z,2.00
2023-03-11T22:53:49.460Z,1.92
2023-03-11T22:59:51.692Z,2.05
2023-03-11T23:05:54.121Z,2.10
2023-03-11T23:11:56.637Z,1.42
2023-03-11T23:17:58.759Z,1.40
2023-03-11T23:24:02.120Z,2.17
2023-03-11T23:30:05.345Z,2.08
2023-03-11T23:36:11.151Z,2.00
2023-03-11T23:42:24.894Z,1.35
2023-03-11T23:48:27.881Z,1.50
2023-03-11T23:54:29.989Z,2.05
